Edwardsburg, MI (49112)

3:50 AM EST on February 14, 2016 (GMT -0500)
Juno Lake | | Change Station
CLOSE
Current Station
Personal Weather Station
Location: Edwardsburg, MI
Elevation: 800 ft
Nearby Weather Stations

Elev 800 ft 41.80 °N, 85.98 °W | Updated 3 seconds ago

Overcast
Overcast
10.0 °F
Feels Like 10 °F
N
0.0
Wind Variable Wind from WSW
Gusts 0.0 mph

Today
High -- | Low -- °F
--% Chance of Precip.
Yesterday
High -- | Low -- °F
Precip. -- in
Pressure 30.52 in
Visibility 10.0 miles
Clouds Overcast 3100 ft
Windchill 10 °F
Dew Point 6 °F
Humidity 84%
Rainfall 0.00 in
Snow Depth Not available.
7:41 AM 6:15 PM
Waxing Crescent, 39% visible
METAR KSBN 140754Z 00000KT 10SM OVC031 M14/M17 A3046 RMK AO2 SLP333 T11391172
Pressure 30.52 in
Visibility 10.0 miles
Clouds Overcast 3100 ft
Windchill 10 °F
Dew Point 6 °F
Humidity 84%
Rainfall 0.00 in
Snow Depth Not available.
7:41 AM 6:15 PM
Waxing Crescent, 39% visible
METAR KSBN 140754Z 00000KT 10SM OVC031 M14/M17 A3046 RMK AO2 SLP333 T11391172

10-Day Weather Forecast

Almanac

Astronomy

Feb. 14, 2016 Rise Set
Actual Time
Civil Twilight
Nautical Twilight
Astronomical Twilight
Moon
Length of Visible Light
Length of Day
Tomorrow will be .
, % of the Moon is Illuminated

Today's Extremes

State Highs State Lows

Community

WunderPhotos

Upload Photos

1,892,763 photos uploaded!

WunderBlog® & News

Nearby

Air Quality

  Air Quality AQ Index Pollutant
Not available.

Snow Depth

Station Depth Elevation

Earthquake Activity

City Distance Mag. Time & Date
Minimum magnitude displayed is 2.5.

Coastal Water Temperatures

Place Temperature

Stations

Nearby Weather Stations

Station Location Temp. Windchill Dew Point Humidity Wind Precip. Elev Updated Type
                   

Watches & Warnings

There are currently no watches in effect.